Time;durP1;ratioP1;P1;durP2;ratioP2;P2;SDS_P1;SDS_P2;PMS_P1;PMS_P2;Temp;Humidity;BMP_temperature;BMP_pressure;BME280_temperature;BME280_humidity;BME280_pressure;Samples;Min_cycle;Max_cycle;Signal;HPM_P1;HPM_P2
2021/12/17 00:05:14;;;;;;;8.95;5.25;;;3.70;99.90;;;;;;5271171;28;20069;-80
2021/12/17 00:07:45;;;;;;;8.45;5.70;;;3.80;99.90;;;;;;5269503;28;20467;-80
2021/12/17 00:10:18;;;;;;;8.88;6.00;;;3.70;99.90;;;;;;5270434;28;20036;-80
2021/12/17 00:12:51;;;;;;;10.75;5.30;;;3.70;99.90;;;;;;5270378;28;20020;-80
2021/12/17 00:15:22;;;;;;;10.80;7.25;;;3.60;99.90;;;;;;5270379;28;20024;-80
2021/12/17 00:17:59;;;;;;;11.52;7.43;;;3.60;99.90;;;;;;5270305;28;20024;-80
2021/12/17 00:20:58;;;;;;;10.90;6.93;;;3.60;99.90;;;;;;5270268;28;20441;-81
2021/12/17 00:43:54;;;;;;;11.88;6.80;;;3.60;99.90;;;;;;5270291;28;20149;-80
2021/12/17 00:48:56;;;;;;;12.85;7.32;;;3.60;99.90;;;;;;5269999;28;20518;-80
2021/12/17 00:51:55;;;;;;;14.13;8.57;;;3.60;99.90;;;;;;5268449;28;20036;-81
2021/12/17 00:54:36;;;;;;;11.80;7.70;;;3.70;99.90;;;;;;5269682;28;20023;-81
2021/12/17 00:57:19;;;;;;;13.15;8.32;;;3.70;99.90;;;;;;5270240;28;20448;-80
2021/12/17 00:59:54;;;;;;;17.02;10.25;;;3.70;99.90;;;;;;5269383;28;20028;-81
2021/12/17 01:02:30;;;;;;;13.07;8.18;;;3.80;99.90;;;;;;5269789;28;20036;-81
2021/12/17 01:05:06;;;;;;;21.42;11.98;;;3.60;99.90;;;;;;5269848;28;20364;-80
2021/12/17 01:07:40;;;;;;;21.58;11.52;;;3.70;99.90;;;;;;5269609;28;20142;-80
2021/12/17 01:10:17;;;;;;;16.40;10.32;;;3.70;99.90;;;;;;5268136;28;20036;-80
2021/12/17 01:12:48;;;;;;;17.58;10.65;;;3.80;99.90;;;;;;5269788;28;20074;-81
2021/12/17 01:15:19;;;;;;;13.73;8.23;;;3.70;99.90;;;;;;5269708;28;20067;-80
2021/12/17 01:17:56;;;;;;;18.67;11.82;;;3.70;99.90;;;;;;5269299;28;20095;-80
2021/12/17 01:37:02;;;;;;;14.63;8.82;;;3.80;99.90;;;;;;5270053;28;20521;-79
2021/12/17 01:42:22;;;;;;;15.85;9.60;;;3.80;99.90;;;;;;5269185;28;20023;-81
2021/12/17 01:44:53;;;;;;;17.88;9.65;;;3.90;99.90;;;;;;5269849;28;20020;-79
2021/12/17 01:47:24;;;;;;;18.17;10.80;;;3.90;99.90;;;;;;5271679;28;20059;-80
2021/12/17 01:55:50;;;;;;;23.13;18.10;;;3.80;99.90;;;;;;5274079;28;20027;-80
2021/12/17 02:01:17;;;;;;;19.40;12.63;;;3.90;99.90;;;;;;5275697;28;20081;-80
2021/12/17 02:03:53;;;;;;;36.22;20.63;;;4.00;99.90;;;;;;5274718;28;20468;-80
2021/12/17 02:06:35;;;;;;;21.20;11.70;;;3.90;99.90;;;;;;5274095;28;20016;-80
2021/12/17 02:09:32;;;;;;;16.95;10.80;;;3.90;99.90;;;;;;5273423;28;20115;-80
2021/12/17 02:32:01;;;;;;;17.23;10.70;;;3.80;99.90;;;;;;5273057;28;20047;-80
2021/12/17 02:34:58;;;;;;;17.85;10.63;;;3.90;99.90;;;;;;5273188;28;20446;-81
2021/12/17 02:38:14;;;;;;;17.55;11.13;;;3.80;99.90;;;;;;5272746;28;20026;-81
2021/12/17 02:46:26;;;;;;;15.32;9.85;;;3.80;99.90;;;;;;5273463;28;20054;-80
2021/12/17 02:48:58;;;;;;;19.83;12.90;;;3.80;99.90;;;;;;5272245;28;20016;-80
2021/12/17 02:51:28;;;;;;;17.58;11.10;;;3.80;99.90;;;;;;5272059;28;20036;-80
2021/12/17 02:53:59;;;;;;;17.50;11.50;;;3.70;99.90;;;;;;5271992;28;20467;-80
2021/12/17 02:56:30;;;;;;;19.70;12.75;;;3.70;99.90;;;;;;5272654;28;20031;-80
2021/12/17 02:59:02;;;;;;;19.88;11.73;;;3.70;99.90;;;;;;5271889;28;20461;-80
2021/12/17 03:01:33;;;;;;;21.65;12.57;;;3.70;99.90;;;;;;5272600;28;20604;-80
2021/12/17 03:04:04;;;;;;;20.10;13.23;;;3.70;99.90;;;;;;5272098;28;20112;-79
2021/12/17 03:06:35;;;;;;;20.75;12.95;;;3.60;99.90;;;;;;5272089;28;20157;-80
2021/12/17 03:09:06;;;;;;;20.33;13.55;;;3.70;99.90;;;;;;5272017;28;20459;-79
2021/12/17 03:11:37;;;;;;;22.65;13.15;;;3.70;99.90;;;;;;5271564;28;20028;-80
2021/12/17 03:14:08;;;;;;;21.92;13.50;;;3.70;99.90;;;;;;5270305;28;20051;-80
2021/12/17 03:17:10;;;;;;;22.08;12.82;;;3.80;99.90;;;;;;5270170;28;20028;-80
2021/12/17 03:25:21;;;;;;;32.80;18.23;;;3.70;99.90;;;;;;5271711;28;20066;-81
2021/12/17 03:27:52;;;;;;;22.27;13.43;;;3.70;99.90;;;;;;5271304;28;20360;-80
2021/12/17 03:30:23;;;;;;;28.55;16.83;;;3.80;99.90;;;;;;5271071;28;20063;-80
2021/12/17 03:32:54;;;;;;;26.05;16.00;;;3.80;99.90;;;;;;5271482;28;20036;-80
2021/12/17 03:35:25;;;;;;;23.27;14.82;;;3.80;99.90;;;;;;5271183;28;20056;-80
2021/12/17 03:37:56;;;;;;;19.23;13.13;;;3.90;99.90;;;;;;5271405;28;20051;-80
2021/12/17 03:40:28;;;;;;;22.27;12.98;;;3.80;99.90;;;;;;5271640;28;20058;-79
2021/12/17 03:43:10;;;;;;;22.15;13.43;;;3.70;99.90;;;;;;5271566;28;20459;-80
2021/12/17 03:45:42;;;;;;;22.17;13.82;;;3.60;99.90;;;;;;5271349;28;20043;-80
2021/12/17 03:48:13;;;;;;;20.20;12.60;;;3.60;99.90;;;;;;5269567;28;20051;-81
2021/12/17 03:50:43;;;;;;;21.05;13.52;;;3.60;99.90;;;;;;5270800;28;20063;-80
2021/12/17 03:53:14;;;;;;;21.65;13.48;;;3.60;99.90;;;;;;5271328;28;20024;-79
2021/12/17 03:55:45;;;;;;;22.40;14.18;;;3.70;99.90;;;;;;5270977;28;20039;-80
2021/12/17 03:58:19;;;;;;;22.77;14.70;;;3.90;99.90;;;;;;5269590;28;20471;-79
2021/12/17 04:00:50;;;;;;;21.02;12.45;;;3.80;99.90;;;;;;5270623;28;20074;-80
2021/12/17 04:03:21;;;;;;;19.00;11.75;;;3.80;99.90;;;;;;5270613;28;20020;-79
2021/12/17 04:05:51;;;;;;;20.20;11.90;;;3.70;99.90;;;;;;5271535;28;20519;-79
2021/12/17 04:08:22;;;;;;;19.65;12.95;;;3.70;99.90;;;;;;5271159;28;20027;-80
2021/12/17 04:10:54;;;;;;;17.23;11.88;;;3.70;99.90;;;;;;5269257;28;20032;-80
2021/12/17 04:13:29;;;;;;;20.40;13.15;;;3.70;99.90;;;;;;5270441;28;20379;-81
2021/12/17 04:16:05;;;;;;;21.98;14.10;;;3.70;99.90;;;;;;5270329;28;20224;-80
2021/12/17 04:18:41;;;;;;;20.17;13.38;;;3.80;99.90;;;;;;5270348;28;20388;-80
2021/12/17 04:21:15;;;;;;;19.85;13.70;;;3.80;99.90;;;;;;5270160;28;20044;-81
2021/12/17 04:23:48;;;;;;;22.38;14.45;;;3.80;99.90;;;;;;5270481;28;20020;-80
2021/12/17 04:26:19;;;;;;;19.88;13.77;;;3.60;99.90;;;;;;5270099;28;20028;-80
2021/12/17 04:28:52;;;;;;;20.83;13.60;;;3.70;99.90;;;;;;5270098;28;20031;-80
2021/12/17 04:31:27;;;;;;;20.08;13.65;;;3.60;99.90;;;;;;5269985;28;20032;-80
2021/12/17 04:33:58;;;;;;;22.33;14.30;;;3.60;99.90;;;;;;5270569;28;20394;-80
2021/12/17 04:36:32;;;;;;;23.50;14.98;;;3.50;99.90;;;;;;5270413;28;20028;-80
2021/12/17 04:39:04;;;;;;;23.88;13.45;;;3.70;99.90;;;;;;5269882;28;20111;-81
2021/12/17 04:41:44;;;;;;;21.85;12.63;;;3.60;99.90;;;;;;5268669;28;20700;-80
2021/12/17 04:44:28;;;;;;;;;;;3.70;99.90;;;;;;5270879;28;20023;-80
2021/12/17 04:57:58;;;;;;;21.35;14.65;;;3.60;99.90;;;;;;5270232;28;20035;-80
2021/12/17 05:00:31;;;;;;;20.15;13.50;;;3.70;99.90;;;;;;5269539;28;20467;-80
2021/12/17 05:03:01;;;;;;;22.27;13.23;;;3.70;99.90;;;;;;5269587;28;20028;-80
2021/12/17 05:05:33;;;;;;;21.20;13.80;;;3.80;99.90;;;;;;5268243;28;20050;-81
2021/12/17 05:08:10;;;;;;;21.08;13.80;;;3.60;99.90;;;;;;5269494;28;20243;-80
2021/12/17 05:11:39;;;;;;;22.52;14.23;;;3.80;99.90;;;;;;5269468;28;20074;-80
2021/12/17 05:19:35;;;;;;;23.75;15.88;;;3.80;99.90;;;;;;5269715;28;20553;-81
2021/12/17 05:22:10;;;;;;;26.13;15.57;;;3.80;99.90;;;;;;5269083;28;20032;-80
2021/12/17 05:24:41;;;;;;;27.05;14.77;;;3.70;99.90;;;;;;5269388;28;20063;-80
2021/12/17 05:27:12;;;;;;;20.73;13.40;;;3.70;99.90;;;;;;5269325;28;20065;-80
2021/12/17 05:29:43;;;;;;;25.08;15.15;;;3.70;99.90;;;;;;5269242;28;20024;-80
2021/12/17 05:32:14;;;;;;;21.33;13.35;;;3.80;99.90;;;;;;5269348;28;20414;-80
2021/12/17 05:34:45;;;;;;;23.30;14.52;;;3.90;99.90;;;;;;5268185;28;20028;-81
2021/12/17 05:37:15;;;;;;;19.42;13.43;;;3.80;99.90;;;;;;5269595;28;20020;-80
2021/12/17 05:39:46;;;;;;;19.88;13.70;;;3.80;99.90;;;;;;5269816;28;20032;-80
2021/12/17 05:42:19;;;;;;;20.50;13.63;;;3.80;99.90;;;;;;5269115;28;20095;-80
2021/12/17 05:44:55;;;;;;;22.05;13.75;;;3.80;99.90;;;;;;5269752;28;20073;-80
2021/12/17 05:50:56;;;;;;;24.40;13.98;;;3.70;99.90;;;;;;5269169;28;20036;-80
2021/12/17 05:53:28;;;;;;;21.75;13.40;;;3.70;99.90;;;;;;5269024;28;20038;-80
2021/12/17 05:56:00;;;;;;;25.08;15.63;;;3.70;99.90;;;;;;5269270;28;20016;-80
2021/12/17 05:58:31;;;;;;;26.45;17.17;;;3.60;99.90;;;;;;5269236;28;20021;-81
2021/12/17 06:01:02;;;;;;;26.35;16.95;;;3.70;99.90;;;;;;5268920;28;20059;-80
2021/12/17 06:03:32;;;;;;;27.10;16.85;;;3.60;99.90;;;;;;5268952;28;20068;-80
2021/12/17 06:06:05;;;;;;;23.58;15.18;;;3.80;99.90;;;;;;5267719;28;20058;-80
2021/12/17 06:08:36;;;;;;;24.10;15.10;;;3.70;99.90;;;;;;5269176;28;20372;-80
2021/12/17 06:11:07;;;;;;;33.17;17.40;;;3.80;99.90;;;;;;5267484;28;20111;-81
2021/12/17 06:13:43;;;;;;;25.40;16.42;;;3.80;99.90;;;;;;5267668;28;20021;-80
2021/12/17 06:16:14;;;;;;;24.85;15.27;;;3.80;99.90;;;;;;5267613;28;20028;-81
2021/12/17 06:18:50;;;;;;;27.27;16.80;;;3.70;99.90;;;;;;5268607;28;20073;-79
2021/12/17 06:21:20;;;;;;;37.63;22.52;;;3.80;99.90;;;;;;5267502;28;20052;-81
2021/12/17 06:23:51;;;;;;;27.58;17.10;;;3.80;99.90;;;;;;5268746;28;20495;-80
2021/12/17 06:26:22;;;;;;;27.17;15.75;;;3.90;99.90;;;;;;5268811;28;20379;-81
2021/12/17 06:28:53;;;;;;;30.10;18.48;;;3.80;99.90;;;;;;5268982;28;20032;-80
2021/12/17 06:31:25;;;;;;;21.23;14.32;;;3.90;99.90;;;;;;5268562;28;20038;-81
2021/12/17 06:33:55;;;;;;;20.35;13.73;;;3.90;99.90;;;;;;5270122;28;20035;-81
2021/12/17 06:36:26;;;;;;;24.67;14.93;;;3.80;99.90;;;;;;5272937;28;20016;-80
2021/12/17 06:38:57;;;;;;;25.27;15.65;;;4.00;99.90;;;;;;5272032;28;20039;-80
2021/12/17 06:41:28;;;;;;;25.17;15.30;;;4.00;99.90;;;;;;5272296;28;20027;-80
2021/12/17 06:44:00;;;;;;;74.93;44.10;;;4.00;99.90;;;;;;5272765;28;20103;-80
2021/12/17 06:46:38;;;;;;;23.88;14.48;;;4.00;99.90;;;;;;5272208;28;20020;-81
2021/12/17 06:49:23;;;;;;;23.98;14.38;;;4.00;99.90;;;;;;5272720;28;20032;-80
2021/12/17 06:55:08;;;;;;;27.98;16.52;;;4.00;99.90;;;;;;5272368;28;20043;-80
2021/12/17 07:06:28;;;;;;;25.48;16.92;;;3.90;99.90;;;;;;5291379;28;20050;-81
2021/12/17 07:09:33;;;;;;;;;;;4.00;99.90;;;;;;5290682;28;20035;-81
2021/12/17 07:17:28;;;;;;;20.75;12.73;;;4.00;99.90;;;;;;5290288;28;20050;-80
2021/12/17 07:20:59;;;;;;;21.63;13.10;;;4.10;99.90;;;;;;5289955;28;20063;-81
2021/12/17 07:34:11;;;;;;;22.33;15.40;;;4.20;99.90;;;;;;5227512;28;20033;-81
2021/12/17 07:36:55;;;;;;;48.80;24.30;;;4.10;99.90;;;;;;5227278;28;20041;-82
2021/12/17 07:39:26;;;;;;;24.42;15.07;;;4.20;99.90;;;;;;5227382;28;20457;-82
2021/12/17 07:41:58;;;;;;;26.42;18.23;;;4.10;99.90;;;;;;5193342;28;20048;-82
2021/12/17 07:44:35;;;;;;;39.83;21.80;;;4.10;99.90;;;;;;5226710;28;20036;-81
2021/12/17 07:47:06;;;;;;;48.58;30.02;;;4.10;99.90;;;;;;5226799;28;20033;-81
2021/12/17 07:49:37;;;;;;;24.17;15.25;;;4.10;99.90;;;;;;5210138;28;20385;-82
2021/12/17 07:52:08;;;;;;;33.13;19.75;;;4.10;99.90;;;;;;5226956;28;20224;-85
2021/12/17 07:54:38;;;;;;;29.63;18.60;;;4.20;99.90;;;;;;5227141;28;20519;-82
2021/12/17 07:57:11;;;;;;;24.65;14.38;;;4.20;99.90;;;;;;5226548;28;20036;-82
2021/12/17 07:59:44;;;;;;;25.65;15.60;;;4.20;99.90;;;;;;5226666;28;20032;-84
2021/12/17 08:02:15;;;;;;;21.55;13.38;;;4.30;99.90;;;;;;5226812;28;20519;-82
2021/12/17 08:04:46;;;;;;;21.17;13.85;;;4.20;99.90;;;;;;5243811;28;20039;-83
2021/12/17 08:07:19;;;;;;;20.52;12.98;;;4.30;99.90;;;;;;5243277;28;20510;-83
2021/12/17 08:09:49;;;;;;;21.65;13.60;;;4.30;99.90;;;;;;5290907;28;20043;-82
2021/12/17 08:12:20;;;;;;;20.95;13.15;;;4.30;99.90;;;;;;5289845;28;20379;-82
2021/12/17 08:14:51;;;;;;;16.42;10.85;;;4.30;99.90;;;;;;5283659;28;20383;-81
2021/12/17 08:17:50;;;;;;;21.30;15.95;;;4.30;99.90;;;;;;5273554;28;20433;-80
2021/12/17 08:28:49;;;;;;;16.60;11.20;;;4.10;99.90;;;;;;5290922;28;20459;-82
2021/12/17 08:31:21;;;;;;;20.35;15.48;;;4.10;99.90;;;;;;5290647;28;20070;-82
2021/12/17 08:33:52;;;;;;;13.95;8.82;;;4.10;99.90;;;;;;5289206;28;20115;-81
2021/12/17 08:36:23;;;;;;;16.02;10.93;;;4.10;99.90;;;;;;5290705;28;20039;-82
2021/12/17 08:38:54;;;;;;;11.50;7.63;;;4.10;99.90;;;;;;5290378;27;20030;-81
2021/12/17 08:41:26;;;;;;;13.07;8.35;;;4.10;99.90;;;;;;5289386;28;20106;-81
2021/12/17 08:43:57;;;;;;;13.50;8.60;;;4.10;99.90;;;;;;5290631;28;20102;-83
2021/12/17 08:46:28;;;;;;;11.70;7.95;;;4.20;99.90;;;;;;5290520;28;20094;-81
2021/12/17 08:48:59;;;;;;;16.88;10.48;;;4.00;99.90;;;;;;5290401;28;20053;-79
2021/12/17 08:51:31;;;;;;;11.15;9.23;;;4.30;99.90;;;;;;5290639;28;20042;-79
2021/12/17 08:54:02;;;;;;;16.05;10.10;;;4.10;99.90;;;;;;5288937;28;20015;-80
2021/12/17 08:57:14;;;;;;;12.07;8.82;;;4.20;99.90;;;;;;5288534;28;20072;-81
2021/12/17 08:59:44;;;;;;;16.98;10.77;;;4.10;99.90;;;;;;5287223;28;20032;-85
2021/12/17 09:02:16;;;;;;;16.08;9.75;;;4.20;99.90;;;;;;5288996;28;20436;-81
2021/12/17 09:04:47;;;;;;;20.98;13.60;;;4.30;99.90;;;;;;5289024;28;20409;-80
2021/12/17 09:07:18;;;;;;;11.57;7.80;;;4.30;99.90;;;;;;5295223;27;20027;-81
2021/12/17 09:09:49;;;;;;;14.30;9.38;;;4.30;99.90;;;;;;5289959;28;20035;-81
2021/12/17 09:12:21;;;;;;;12.75;7.80;;;4.40;99.90;;;;;;5289992;28;20026;-80
2021/12/17 09:14:51;;;;;;;13.90;8.65;;;4.40;99.90;;;;;;5290156;28;20072;-80
2021/12/17 09:17:24;;;;;;;15.48;8.55;;;4.30;99.90;;;;;;5290097;28;20023;-80
2021/12/17 09:19:55;;;;;;;18.67;11.48;;;4.40;99.90;;;;;;5288312;28;20498;-80
2021/12/17 09:22:26;;;;;;;11.43;7.10;;;4.30;99.90;;;;;;5290196;28;20026;-79
2021/12/17 09:24:57;;;;;;;12.20;8.13;;;4.20;99.90;;;;;;5291326;28;20482;-79
2021/12/17 09:27:27;;;;;;;11.38;7.43;;;4.40;99.90;;;;;;5290137;28;20055;-80
2021/12/17 09:29:58;;;;;;;12.82;7.88;;;4.20;99.90;;;;;;5289892;28;20781;-80
2021/12/17 09:32:29;;;;;;;11.77;7.35;;;4.30;99.90;;;;;;5289993;28;20051;-79
2021/12/17 09:35:00;;;;;;;12.35;7.70;;;4.30;99.90;;;;;;5289615;28;20016;-80
2021/12/17 09:37:38;;;;;;;12.80;6.85;;;4.30;99.90;;;;;;5295066;28;20041;-80
2021/12/17 09:40:11;;;;;;;11.23;7.53;;;4.30;99.90;;;;;;5288258;28;20509;-78
2021/12/17 09:42:44;;;;;;;14.13;8.68;;;4.20;99.90;;;;;;5288996;28;20039;-79
2021/12/17 09:45:17;;;;;;;15.50;8.95;;;4.40;99.90;;;;;;5289705;28;20069;-80
2021/12/17 09:47:48;;;;;;;45.85;23.17;;;4.40;99.90;;;;;;5289235;28;20023;-80
2021/12/17 09:50:22;;;;;;;22.92;12.65;;;4.30;99.90;;;;;;5289448;28;20023;-80
2021/12/17 09:52:53;;;;;;;12.30;8.98;;;4.30;99.90;;;;;;5289290;28;20097;-80
2021/12/17 09:55:25;;;;;;;88.75;36.78;;;4.40;99.90;;;;;;5289460;28;20042;-79
2021/12/17 09:57:56;;;;;;;23.83;13.75;;;4.40;99.90;;;;;;5289405;28;20126;-79
2021/12/17 10:00:27;;;;;;;19.77;10.05;;;4.40;99.90;;;;;;5289723;28;20099;-79
2021/12/17 10:02:58;;;;;;;18.63;10.02;;;4.50;99.90;;;;;;5289301;28;20032;-78
2021/12/17 10:05:34;;;;;;;26.42;13.05;;;4.40;99.90;;;;;;5283943;28;20024;-80
2021/12/17 10:08:19;;;;;;;29.25;15.07;;;4.40;99.90;;;;;;5294457;28;20020;-80
2021/12/17 10:10:55;;;;;;;12.93;8.40;;;4.40;99.90;;;;;;5293765;28;20084;-80
2021/12/17 10:13:29;;;;;;;29.40;16.73;;;4.40;99.90;;;;;;5293656;28;20026;-79
2021/12/17 10:16:07;;;;;;;13.48;8.32;;;4.30;99.90;;;;;;5293453;28;20020;-79
2021/12/17 10:18:44;;;;;;;33.67;18.20;;;4.40;99.90;;;;;;5293588;28;20099;-80
2021/12/17 10:21:21;;;;;;;12.07;8.05;;;4.50;99.90;;;;;;5287426;28;20051;-79
2021/12/17 10:23:54;;;;;;;12.70;8.43;;;4.40;99.90;;;;;;5293328;28;20382;-79
2021/12/17 10:26:27;;;;;;;13.32;8.82;;;4.40;99.90;;;;;;5293467;28;20405;-79
2021/12/17 10:29:01;;;;;;;18.58;12.27;;;4.40;99.90;;;;;;5293084;28;20537;-79
2021/12/17 10:31:37;;;;;;;27.25;15.90;;;4.40;99.90;;;;;;5291726;28;20040;-79
2021/12/17 10:34:17;;;;;;;12.18;7.28;;;4.40;99.90;;;;;;5293025;28;20035;-79
2021/12/17 10:37:13;;;;;;;21.83;15.25;;;4.50;99.90;;;;;;5290493;28;20016;-79
2021/12/17 10:39:46;;;;;;;25.65;15.32;;;4.50;99.90;;;;;;5293066;28;20482;-80
2021/12/17 10:42:24;;;;;;;13.30;9.27;;;4.50;99.90;;;;;;5293023;28;20019;-80
2021/12/17 10:45:03;;;;;;;16.92;11.27;;;4.60;99.90;;;;;;5292987;28;20048;-78
2021/12/17 10:47:36;;;;;;;29.20;16.60;;;4.60;99.90;;;;;;5293020;28;20020;-79
2021/12/17 10:50:08;;;;;;;15.80;9.85;;;4.60;99.90;;;;;;5291571;28;20023;-79
2021/12/17 10:52:44;;;;;;;19.85;11.07;;;4.70;99.90;;;;;;5292923;28;20031;-78
2021/12/17 10:55:16;;;;;;;24.35;16.52;;;4.70;99.90;;;;;;5292732;28;20019;-80
2021/12/17 10:57:49;;;;;;;19.83;12.63;;;4.60;99.90;;;;;;5291441;28;20024;-78
2021/12/17 11:00:20;;;;;;;30.60;18.75;;;4.60;99.90;;;;;;5292442;28;20034;-79
2021/12/17 11:02:52;;;;;;;17.65;10.25;;;4.70;99.90;;;;;;5292615;28;20055;-79
2021/12/17 11:05:24;;;;;;;11.95;7.43;;;4.70;99.90;;;;;;5292458;28;20421;-79
2021/12/17 11:07:55;;;;;;;12.77;8.55;;;4.80;99.90;;;;;;5292502;28;20034;-81
2021/12/17 11:10:31;;;;;;;19.27;10.63;;;4.80;99.90;;;;;;5292400;28;20031;-80
2021/12/17 11:13:02;;;;;;;22.70;14.77;;;4.80;99.90;;;;;;5292541;28;20038;-79
2021/12/17 11:15:33;;;;;;;22.58;13.68;;;5.00;99.90;;;;;;5291487;27;20099;-79
2021/12/17 11:18:06;;;;;;;11.85;8.13;;;5.00;99.90;;;;;;5292161;28;20529;-80
2021/12/17 11:20:38;;;;;;;18.27;11.23;;;5.00;99.90;;;;;;5291617;28;20063;-83
2021/12/17 11:23:13;;;;;;;12.43;8.38;;;5.10;99.90;;;;;;5284451;28;20024;-80
2021/12/17 11:25:53;;;;;;;12.98;8.38;;;5.20;99.90;;;;;;5292000;28;20024;-79
2021/12/17 11:28:24;;;;;;;11.88;7.93;;;5.30;99.90;;;;;;5292215;28;20474;-80
2021/12/17 11:30:55;;;;;;;11.18;7.60;;;5.30;99.90;;;;;;5291811;28;20043;-80
2021/12/17 11:33:27;;;;;;;30.83;20.27;;;5.40;99.90;;;;;;5291929;28;20489;-81
2021/12/17 11:35:57;;;;;;;12.68;7.63;;;5.20;99.90;;;;;;5291785;27;20028;-80
2021/12/17 11:39:05;;;;;;;11.93;6.97;;;5.30;99.90;;;;;;5292136;27;20030;-79
2021/12/17 11:41:57;;;;;;;12.82;9.35;;;5.20;99.90;;;;;;5287528;28;20019;-78
2021/12/17 11:44:40;;;;;;;12.45;9.20;;;5.30;99.90;;;;;;5288815;27;20390;-80
2021/12/17 11:47:12;;;;;;;16.67;11.27;;;5.30;99.90;;;;;;5291705;28;20031;-78
2021/12/17 11:49:50;;;;;;;11.45;7.85;;;5.40;99.90;;;;;;5288636;28;20146;-81
2021/12/17 11:52:33;;;;;;;12.93;8.60;;;5.30;99.90;;;;;;5290357;28;20478;-80
2021/12/17 11:55:27;;;;;;;10.60;7.07;;;5.40;99.90;;;;;;5291467;28;20024;-83
2021/12/17 11:58:01;;;;;;;10.05;6.65;;;5.30;99.90;;;;;;5291551;28;20068;-86
2021/12/17 12:00:49;;;;;;;9.50;6.80;;;5.30;99.90;;;;;;5291477;28;20523;-79
2021/12/17 12:03:22;;;;;;;9.93;7.05;;;5.40;99.90;;;;;;5284797;28;20102;-80
2021/12/17 12:05:59;;;;;;;12.25;7.05;;;5.40;99.90;;;;;;5291179;28;20071;-79
2021/12/17 12:08:45;;;;;;;14.10;9.93;;;5.40;99.90;;;;;;5291261;28;20020;-81
2021/12/17 12:11:27;;;;;;;13.40;9.20;;;5.50;99.90;;;;;;5291104;28;20463;-80
2021/12/17 12:13:57;;;;;;;13.13;9.82;;;5.30;99.90;;;;;;5291203;28;20076;-79
2021/12/17 12:16:32;;;;;;;16.55;11.40;;;5.40;99.90;;;;;;5291129;28;20020;-79
2021/12/17 12:19:07;;;;;;;13.60;9.35;;;5.50;99.90;;;;;;5286210;28;20027;-76
2021/12/17 12:21:40;;;;;;;24.70;17.63;;;5.40;99.90;;;;;;5291727;28;20520;-79
2021/12/17 12:24:13;;;;;;;10.60;7.55;;;5.20;99.90;;;;;;5283415;28;20360;-79
2021/12/17 12:26:46;;;;;;;11.65;7.55;;;5.40;99.90;;;;;;5290643;28;20020;-80
2021/12/17 12:29:21;;;;;;;11.27;7.53;;;5.30;99.90;;;;;;5290860;28;20077;-80
2021/12/17 12:31:59;;;;;;;13.50;9.57;;;5.30;99.90;;;;;;5289880;28;20388;-81
2021/12/17 12:34:37;;;;;;;12.18;7.60;;;5.20;99.90;;;;;;5290665;28;20451;-78
2021/12/17 12:37:08;;;;;;;10.75;7.60;;;5.20;99.90;;;;;;5282857;28;20024;-78
2021/12/17 12:40:03;;;;;;;16.52;9.15;;;5.20;99.90;;;;;;5290682;28;20027;-79
2021/12/17 12:42:36;;;;;;;10.82;7.20;;;5.30;99.90;;;;;;5291153;27;20027;-78
2021/12/17 12:45:11;;;;;;;11.05;7.95;;;5.30;99.90;;;;;;5290820;28;20518;-79
2021/12/17 12:47:51;;;;;;;19.85;13.57;;;5.30;99.90;;;;;;5290497;28;20148;-80
2021/12/17 12:50:27;;;;;;;18.42;12.80;;;5.20;99.90;;;;;;5290806;28;20066;-80
2021/12/17 12:53:00;;;;;;;11.13;7.00;;;5.30;99.90;;;;;;5291021;28;20024;-77
2021/12/17 12:55:36;;;;;;;11.25;7.65;;;5.30;99.90;;;;;;5290738;28;20077;-78
2021/12/17 12:58:13;;;;;;;9.30;6.88;;;5.30;99.90;;;;;;5290236;28;20474;-79
2021/12/17 13:00:47;;;;;;;13.07;8.52;;;5.30;99.90;;;;;;5287251;28;20479;-80
2021/12/17 13:03:28;;;;;;;10.75;6.22;;;5.30;99.90;;;;;;5290759;28;20372;-79
2021/12/17 13:06:00;;;;;;;20.30;10.90;;;5.30;99.90;;;;;;5290731;28;20118;-78
2021/12/17 13:08:32;;;;;;;24.95;11.68;;;5.30;99.90;;;;;;5290422;28;20016;-79
2021/12/17 13:11:06;;;;;;;11.43;7.15;;;5.30;99.90;;;;;;5290134;27;20070;-79
2021/12/17 13:13:51;;;;;;;9.77;6.35;;;5.30;99.90;;;;;;5290709;28;20027;-76
2021/12/17 13:16:42;;;;;;;19.40;11.30;;;5.30;99.90;;;;;;5290466;28;20030;-78
2021/12/17 13:22:24;;;;;;;11.25;7.40;;;5.20;99.90;;;;;;5290463;28;20058;-78
2021/12/17 13:24:53;;;;;;;13.80;10.57;;;5.20;99.90;;;;;;5290552;28;20023;-78
2021/12/17 13:27:23;;;;;;;9.38;6.80;;;5.30;99.90;;;;;;5290535;28;20103;-79
2021/12/17 13:29:58;;;;;;;13.18;9.00;;;5.20;99.90;;;;;;5289989;28;20035;-79
2021/12/17 13:32:31;;;;;;;11.95;8.32;;;5.20;99.90;;;;;;5288308;28;20044;-82
2021/12/17 13:35:02;;;;;;;12.82;7.20;;;5.40;99.90;;;;;;5289861;28;20103;-80
2021/12/17 13:37:34;;;;;;;10.75;7.32;;;5.20;99.90;;;;;;5290110;28;20550;-80
2021/12/17 13:40:11;;;;;;;9.38;6.45;;;5.30;99.90;;;;;;5289981;28;20023;-80
2021/12/17 13:42:48;;;;;;;9.70;7.25;;;5.30;99.90;;;;;;5289214;28;20063;-80
2021/12/17 13:45:21;;;;;;;10.90;7.45;;;5.20;99.90;;;;;;5292131;28;20038;-80
2021/12/17 13:47:57;;;;;;;10.50;7.43;;;5.10;99.90;;;;;;5275322;28;20097;-79
2021/12/17 13:50:40;;;;;;;13.02;7.88;;;5.10;99.90;;;;;;5291939;28;20045;-81
2021/12/17 13:53:14;;;;;;;42.88;20.13;;;5.20;99.90;;;;;;5284443;28;20051;-80
2021/12/17 13:55:52;;;;;;;77.22;35.58;;;5.10;99.90;;;;;;5292074;28;20185;-80
2021/12/17 13:58:24;;;;;;;41.75;22.27;;;5.00;99.90;;;;;;5292147;28;20054;-82
2021/12/17 14:00:57;;;;;;;116.30;52.05;;;5.00;99.90;;;;;;5291784;28;20046;-80
2021/12/17 14:03:34;;;;;;;45.75;24.55;;;5.00;99.90;;;;;;5291685;28;20590;-80
2021/12/17 14:06:18;;;;;;;33.63;18.63;;;5.00;99.90;;;;;;5275278;28;20028;-80
2021/12/17 14:08:51;;;;;;;23.83;11.90;;;5.00;99.90;;;;;;5291874;28;20063;-80
2021/12/17 14:11:29;;;;;;;20.67;11.88;;;5.00;99.90;;;;;;5291848;28;20032;-80
2021/12/17 14:14:00;;;;;;;17.95;10.82;;;5.00;99.90;;;;;;5292025;28;20522;-80
2021/12/17 14:16:33;;;;;;;13.00;8.52;;;5.00;99.90;;;;;;5291843;28;20402;-78
2021/12/17 14:19:04;;;;;;;15.77;10.88;;;5.00;99.90;;;;;;5291707;28;20035;-80
2021/12/17 14:21:36;;;;;;;15.73;11.13;;;5.00;99.90;;;;;;5294069;28;20035;-78
2021/12/17 14:24:07;;;;;;;18.10;12.02;;;5.10;99.90;;;;;;5272721;28;20025;-80
2021/12/17 14:26:38;;;;;;;18.48;12.35;;;5.00;99.90;;;;;;5289494;28;20034;-80
2021/12/17 14:29:11;;;;;;;18.70;12.95;;;5.00;99.90;;;;;;5293808;28;20526;-80
2021/12/17 14:31:42;;;;;;;22.45;13.93;;;5.00;99.90;;;;;;5293769;28;20048;-76
2021/12/17 14:34:16;;;;;;;28.20;16.27;;;5.00;99.90;;;;;;5293533;28;20019;-79
2021/12/17 14:36:47;;;;;;;15.98;10.32;;;4.90;99.90;;;;;;5293491;28;20507;-76
2021/12/17 14:39:22;;;;;;;16.48;10.30;;;4.90;99.90;;;;;;5293277;28;20136;-79
2021/12/17 14:41:57;;;;;;;16.65;10.75;;;5.00;99.90;;;;;;5293631;28;20124;-79
2021/12/17 14:44:37;;;;;;;30.00;17.75;;;4.90;99.90;;;;;;5294030;28;20020;-77
2021/12/17 14:47:19;;;;;;;24.83;15.13;;;4.90;99.90;;;;;;5293213;28;20027;-77
2021/12/17 15:03:42;;;;;;;11.57;7.97;;;4.80;99.90;;;;;;5271904;28;20438;-79
2021/12/17 15:06:16;;;;;;;15.05;9.15;;;4.70;99.90;;;;;;5271721;28;20031;-79
2021/12/17 15:08:47;;;;;;;20.05;11.77;;;4.50;99.90;;;;;;5289702;28;20020;-77
2021/12/17 15:11:25;;;;;;;18.02;11.60;;;4.50;99.90;;;;;;5292596;28;20039;-78
2021/12/17 15:13:56;;;;;;;26.65;15.23;;;4.40;99.90;;;;;;5292663;28;20024;-80
2021/12/17 15:16:27;;;;;;;15.50;10.45;;;4.60;99.90;;;;;;5292825;28;20103;-80
2021/12/17 15:18:59;;;;;;;23.40;12.95;;;4.50;99.90;;;;;;5292612;28;20023;-81
2021/12/17 15:21:29;;;;;;;17.27;11.23;;;4.60;99.90;;;;;;5292750;28;20126;-80
2021/12/17 15:24:00;;;;;;;23.35;14.10;;;4.70;99.90;;;;;;5292836;28;20580;-79
2021/12/17 15:26:31;;;;;;;13.38;9.02;;;4.70;99.90;;;;;;5292377;28;20382;-79
2021/12/17 15:29:02;;;;;;;18.08;10.60;;;4.70;99.90;;;;;;5292218;28;20023;-80
2021/12/17 15:31:33;;;;;;;17.60;11.32;;;4.70;99.90;;;;;;5292187;28;20047;-80
2021/12/17 15:34:04;;;;;;;17.52;11.23;;;4.70;99.90;;;;;;5292140;28;20363;-79
2021/12/17 15:36:35;;;;;;;17.42;10.98;;;4.60;99.90;;;;;;5292172;28;20378;-79
2021/12/17 15:39:07;;;;;;;19.50;12.35;;;4.70;99.90;;;;;;5292183;28;20034;-78
2021/12/17 15:41:41;;;;;;;21.45;13.05;;;4.70;99.90;;;;;;5292018;28;20019;-79
2021/12/17 15:44:12;;;;;;;21.25;13.57;;;4.70;99.90;;;;;;5292134;28;20019;-79
2021/12/17 15:46:42;;;;;;;18.35;11.30;;;4.70;99.90;;;;;;5292115;28;20022;-79
2021/12/17 15:49:13;;;;;;;25.10;15.93;;;4.60;99.90;;;;;;5292065;28;20076;-79
2021/12/17 15:51:44;;;;;;;17.52;11.18;;;4.60;99.90;;;;;;5291782;28;20059;-77
2021/12/17 15:54:15;;;;;;;19.73;11.32;;;4.60;99.90;;;;;;5291974;27;20508;-78
2021/12/17 15:56:46;;;;;;;19.00;11.60;;;4.50;99.90;;;;;;5291837;28;20047;-78
2021/12/17 15:59:17;;;;;;;33.60;20.50;;;4.50;99.90;;;;;;5291599;28;20027;-78